sensor_id;sensor_type;location;lat;lon;timestamp;P1;durP1;ratioP1;P2;durP2;ratioP2
31061;SDS011;17724;53.546;9.974;2022-09-28T00:03:46;12.40;;;4.27;;
31061;SDS011;17724;53.546;9.974;2022-09-28T00:07:49;10.67;;;3.87;;
31061;SDS011;17724;53.546;9.974;2022-09-28T00:11:49;11.00;;;4.30;;
31061;SDS011;17724;53.546;9.974;2022-09-28T00:16:03;11.27;;;4.30;;
31061;SDS011;17724;53.546;9.974;2022-09-28T00:20:06;12.10;;;4.67;;
31061;SDS011;17724;53.546;9.974;2022-09-28T00:24:09;10.20;;;3.73;;
31061;SDS011;17724;53.546;9.974;2022-09-28T00:28:11;9.97;;;3.50;;
31061;SDS011;17724;53.546;9.974;2022-09-28T00:32:12;11.13;;;4.00;;
31061;SDS011;17724;53.546;9.974;2022-09-28T00:36:13;10.57;;;4.17;;
31061;SDS011;17724;53.546;9.974;2022-09-28T00:40:13;12.40;;;4.13;;
31061;SDS011;17724;53.546;9.974;2022-09-28T00:48:23;9.83;;;3.97;;
31061;SDS011;17724;53.546;9.974;2022-09-28T00:52:35;10.20;;;4.40;;
31061;SDS011;17724;53.546;9.974;2022-09-28T00:56:40;10.53;;;3.80;;
31061;SDS011;17724;53.546;9.974;2022-09-28T01:00:46;10.20;;;4.30;;
31061;SDS011;17724;53.546;9.974;2022-09-28T01:04:47;10.93;;;4.70;;
31061;SDS011;17724;53.546;9.974;2022-09-28T01:08:50;10.70;;;4.40;;
31061;SDS011;17724;53.546;9.974;2022-09-28T01:12:54;10.40;;;4.60;;
31061;SDS011;17724;53.546;9.974;2022-09-28T01:21:23;10.30;;;4.20;;
31061;SDS011;17724;53.546;9.974;2022-09-28T01:30:05;11.13;;;4.47;;
31061;SDS011;17724;53.546;9.974;2022-09-28T01:34:12;11.60;;;5.10;;
31061;SDS011;17724;53.546;9.974;2022-09-28T01:38:21;12.60;;;5.20;;
31061;SDS011;17724;53.546;9.974;2022-09-28T01:42:26;10.83;;;4.17;;
31061;SDS011;17724;53.546;9.974;2022-09-28T01:46:40;10.37;;;4.87;;
31061;SDS011;17724;53.546;9.974;2022-09-28T01:50:43;11.60;;;4.80;;
31061;SDS011;17724;53.546;9.974;2022-09-28T01:54:54;11.33;;;4.57;;
31061;SDS011;17724;53.546;9.974;2022-09-28T01:59:11;11.90;;;5.37;;
31061;SDS011;17724;53.546;9.974;2022-09-28T02:03:25;11.03;;;4.50;;
31061;SDS011;17724;53.546;9.974;2022-09-28T02:07:49;10.57;;;4.57;;
31061;SDS011;17724;53.546;9.974;2022-09-28T02:12:02;10.90;;;4.90;;
31061;SDS011;17724;53.546;9.974;2022-09-28T02:20:15;10.60;;;4.73;;
31061;SDS011;17724;53.546;9.974;2022-09-28T02:24:17;12.00;;;5.30;;
31061;SDS011;17724;53.546;9.974;2022-09-28T02:28:23;11.83;;;5.20;;
31061;SDS011;17724;53.546;9.974;2022-09-28T02:32:23;11.40;;;4.97;;
31061;SDS011;17724;53.546;9.974;2022-09-28T02:36:27;12.93;;;5.47;;
31061;SDS011;17724;53.546;9.974;2022-09-28T02:40:29;11.60;;;5.07;;
31061;SDS011;17724;53.546;9.974;2022-09-28T02:57:45;11.63;;;4.73;;
31061;SDS011;17724;53.546;9.974;2022-09-28T03:06:22;11.10;;;5.20;;
31061;SDS011;17724;53.546;9.974;2022-09-28T03:10:32;12.33;;;5.47;;
31061;SDS011;17724;53.546;9.974;2022-09-28T03:14:37;11.20;;;5.63;;
31061;SDS011;17724;53.546;9.974;2022-09-28T03:18:38;11.60;;;5.67;;
31061;SDS011;17724;53.546;9.974;2022-09-28T03:22:38;13.37;;;5.70;;
31061;SDS011;17724;53.546;9.974;2022-09-28T03:26:39;13.07;;;5.90;;
31061;SDS011;17724;53.546;9.974;2022-09-28T03:30:39;11.13;;;5.27;;
31061;SDS011;17724;53.546;9.974;2022-09-28T03:34:41;13.77;;;6.10;;
31061;SDS011;17724;53.546;9.974;2022-09-28T03:38:42;12.53;;;4.83;;
31061;SDS011;17724;53.546;9.974;2022-09-28T03:42:42;12.83;;;5.57;;
31061;SDS011;17724;53.546;9.974;2022-09-28T03:46:42;12.30;;;5.40;;
31061;SDS011;17724;53.546;9.974;2022-09-28T03:50:43;13.50;;;6.37;;
31061;SDS011;17724;53.546;9.974;2022-09-28T03:54:43;13.33;;;7.87;;
31061;SDS011;17724;53.546;9.974;2022-09-28T03:58:43;11.53;;;6.23;;
31061;SDS011;17724;53.546;9.974;2022-09-28T04:02:44;12.77;;;6.93;;
31061;SDS011;17724;53.546;9.974;2022-09-28T04:06:44;19.90;;;13.27;;
31061;SDS011;17724;53.546;9.974;2022-09-28T04:10:45;13.53;;;8.03;;
31061;SDS011;17724;53.546;9.974;2022-09-28T04:14:45;15.83;;;7.80;;
31061;SDS011;17724;53.546;9.974;2022-09-28T04:18:45;17.67;;;10.30;;
31061;SDS011;17724;53.546;9.974;2022-09-28T04:22:47;17.63;;;9.73;;
31061;SDS011;17724;53.546;9.974;2022-09-28T04:26:47;22.10;;;9.53;;
31061;SDS011;17724;53.546;9.974;2022-09-28T04:30:48;17.27;;;9.57;;
31061;SDS011;17724;53.546;9.974;2022-09-28T04:34:48;19.13;;;10.67;;
31061;SDS011;17724;53.546;9.974;2022-09-28T04:38:51;30.87;;;12.07;;
31061;SDS011;17724;53.546;9.974;2022-09-28T04:42:53;19.07;;;9.47;;
31061;SDS011;17724;53.546;9.974;2022-09-28T04:46:54;17.80;;;9.77;;
31061;SDS011;17724;53.546;9.974;2022-09-28T04:50:55;16.53;;;9.30;;
31061;SDS011;17724;53.546;9.974;2022-09-28T04:54:57;20.03;;;11.13;;
31061;SDS011;17724;53.546;9.974;2022-09-28T04:58:57;16.20;;;9.90;;
31061;SDS011;17724;53.546;9.974;2022-09-28T05:02:58;18.93;;;11.97;;
31061;SDS011;17724;53.546;9.974;2022-09-28T05:06:59;23.07;;;11.33;;
31061;SDS011;17724;53.546;9.974;2022-09-28T05:11:00;15.77;;;9.57;;
31061;SDS011;17724;53.546;9.974;2022-09-28T05:15:05;21.43;;;11.07;;
31061;SDS011;17724;53.546;9.974;2022-09-28T05:19:05;18.57;;;11.53;;
31061;SDS011;17724;53.546;9.974;2022-09-28T05:23:08;17.77;;;10.63;;
31061;SDS011;17724;53.546;9.974;2022-09-28T05:27:09;19.93;;;12.10;;
31061;SDS011;17724;53.546;9.974;2022-09-28T05:31:09;19.50;;;11.30;;
31061;SDS011;17724;53.546;9.974;2022-09-28T05:35:10;17.17;;;10.70;;
31061;SDS011;17724;53.546;9.974;2022-09-28T05:39:10;17.37;;;11.00;;
31061;SDS011;17724;53.546;9.974;2022-09-28T05:43:11;19.00;;;11.20;;
31061;SDS011;17724;53.546;9.974;2022-09-28T05:47:12;24.10;;;11.87;;
31061;SDS011;17724;53.546;9.974;2022-09-28T05:51:12;22.77;;;12.00;;
31061;SDS011;17724;53.546;9.974;2022-09-28T05:55:13;20.43;;;13.20;;
31061;SDS011;17724;53.546;9.974;2022-09-28T05:59:13;22.17;;;13.23;;
31061;SDS011;17724;53.546;9.974;2022-09-28T06:03:14;19.90;;;12.20;;
31061;SDS011;17724;53.546;9.974;2022-09-28T06:07:14;18.90;;;12.50;;
31061;SDS011;17724;53.546;9.974;2022-09-28T06:11:15;18.00;;;11.20;;
31061;SDS011;17724;53.546;9.974;2022-09-28T06:15:16;17.43;;;11.50;;
31061;SDS011;17724;53.546;9.974;2022-09-28T06:19:16;20.30;;;12.50;;
31061;SDS011;17724;53.546;9.974;2022-09-28T06:23:17;20.43;;;13.10;;
31061;SDS011;17724;53.546;9.974;2022-09-28T06:27:17;19.80;;;11.70;;
31061;SDS011;17724;53.546;9.974;2022-09-28T06:31:18;20.80;;;13.23;;
31061;SDS011;17724;53.546;9.974;2022-09-28T06:35:23;22.03;;;13.03;;
31061;SDS011;17724;53.546;9.974;2022-09-28T06:39:25;26.33;;;13.67;;
31061;SDS011;17724;53.546;9.974;2022-09-28T06:43:25;21.87;;;14.07;;
31061;SDS011;17724;53.546;9.974;2022-09-28T06:47:27;23.67;;;14.17;;
31061;SDS011;17724;53.546;9.974;2022-09-28T06:51:27;21.20;;;14.80;;
31061;SDS011;17724;53.546;9.974;2022-09-28T06:55:27;21.00;;;13.73;;
31061;SDS011;17724;53.546;9.974;2022-09-28T06:59:28;22.47;;;14.77;;
31061;SDS011;17724;53.546;9.974;2022-09-28T07:03:30;28.47;;;14.67;;
31061;SDS011;17724;53.546;9.974;2022-09-28T07:07:30;24.83;;;15.77;;
31061;SDS011;17724;53.546;9.974;2022-09-28T07:11:36;23.33;;;15.00;;
31061;SDS011;17724;53.546;9.974;2022-09-28T07:15:38;24.20;;;14.90;;
31061;SDS011;17724;53.546;9.974;2022-09-28T07:19:39;26.97;;;16.80;;
31061;SDS011;17724;53.546;9.974;2022-09-28T07:23:39;27.60;;;16.40;;
31061;SDS011;17724;53.546;9.974;2022-09-28T07:27:40;27.40;;;16.57;;
31061;SDS011;17724;53.546;9.974;2022-09-28T07:31:41;28.00;;;17.03;;
31061;SDS011;17724;53.546;9.974;2022-09-28T07:35:48;24.50;;;15.40;;
31061;SDS011;17724;53.546;9.974;2022-09-28T07:39:50;23.60;;;15.13;;
31061;SDS011;17724;53.546;9.974;2022-09-28T07:44:08;23.67;;;15.00;;
31061;SDS011;17724;53.546;9.974;2022-09-28T07:48:09;20.47;;;13.70;;
31061;SDS011;17724;53.546;9.974;2022-09-28T07:52:09;23.10;;;14.27;;
31061;SDS011;17724;53.546;9.974;2022-09-28T07:56:11;23.10;;;15.67;;
31061;SDS011;17724;53.546;9.974;2022-09-28T08:00:13;22.90;;;14.10;;
31061;SDS011;17724;53.546;9.974;2022-09-28T08:04:14;23.50;;;15.10;;
31061;SDS011;17724;53.546;9.974;2022-09-28T08:08:14;27.70;;;15.50;;
31061;SDS011;17724;53.546;9.974;2022-09-28T08:12:14;23.57;;;15.50;;
31061;SDS011;17724;53.546;9.974;2022-09-28T08:16:17;22.33;;;14.20;;
31061;SDS011;17724;53.546;9.974;2022-09-28T08:20:17;25.30;;;16.27;;
31061;SDS011;17724;53.546;9.974;2022-09-28T08:24:36;49.33;;;15.67;;
31061;SDS011;17724;53.546;9.974;2022-09-28T08:28:37;21.87;;;14.23;;
31061;SDS011;17724;53.546;9.974;2022-09-28T08:32:38;24.70;;;16.20;;
31061;SDS011;17724;53.546;9.974;2022-09-28T08:36:38;24.70;;;14.93;;
31061;SDS011;17724;53.546;9.974;2022-09-28T08:40:44;24.47;;;15.83;;
31061;SDS011;17724;53.546;9.974;2022-09-28T08:45:10;25.93;;;16.20;;
31061;SDS011;17724;53.546;9.974;2022-09-28T08:49:24;25.03;;;15.97;;
31061;SDS011;17724;53.546;9.974;2022-09-28T08:57:51;23.37;;;15.53;;
31061;SDS011;17724;53.546;9.974;2022-09-28T09:01:55;25.10;;;16.57;;
31061;SDS011;17724;53.546;9.974;2022-09-28T09:06:43;23.63;;;15.03;;
31061;SDS011;17724;53.546;9.974;2022-09-28T09:31:07;26.03;;;16.90;;
31061;SDS011;17724;53.546;9.974;2022-09-28T09:48:00;25.37;;;17.27;;
31061;SDS011;17724;53.546;9.974;2022-09-28T09:52:09;26.03;;;18.50;;
31061;SDS011;17724;53.546;9.974;2022-09-28T09:56:22;24.93;;;16.57;;
31061;SDS011;17724;53.546;9.974;2022-09-28T10:00:27;22.97;;;15.73;;
31061;SDS011;17724;53.546;9.974;2022-09-28T10:04:34;23.57;;;16.20;;
31061;SDS011;17724;53.546;9.974;2022-09-28T10:08:42;24.23;;;17.07;;
31061;SDS011;17724;53.546;9.974;2022-09-28T10:12:51;24.30;;;18.83;;
31061;SDS011;17724;53.546;9.974;2022-09-28T10:16:53;28.50;;;20.63;;
31061;SDS011;17724;53.546;9.974;2022-09-28T10:20:55;28.27;;;21.40;;
31061;SDS011;17724;53.546;9.974;2022-09-28T10:24:56;32.30;;;23.63;;
31061;SDS011;17724;53.546;9.974;2022-09-28T10:29:00;27.67;;;20.00;;
31061;SDS011;17724;53.546;9.974;2022-09-28T10:33:03;28.00;;;17.83;;
31061;SDS011;17724;53.546;9.974;2022-09-28T10:37:05;21.97;;;15.27;;
31061;SDS011;17724;53.546;9.974;2022-09-28T10:41:10;25.90;;;15.57;;
31061;SDS011;17724;53.546;9.974;2022-09-28T10:45:19;23.83;;;18.07;;
31061;SDS011;17724;53.546;9.974;2022-09-28T10:49:22;22.87;;;15.60;;
31061;SDS011;17724;53.546;9.974;2022-09-28T10:53:24;24.43;;;16.03;;
31061;SDS011;17724;53.546;9.974;2022-09-28T10:57:32;22.87;;;14.67;;
31061;SDS011;17724;53.546;9.974;2022-09-28T11:01:33;25.63;;;17.93;;
31061;SDS011;17724;53.546;9.974;2022-09-28T11:05:37;21.70;;;13.27;;
31061;SDS011;17724;53.546;9.974;2022-09-28T11:09:40;17.43;;;10.87;;
31061;SDS011;17724;53.546;9.974;2022-09-28T11:13:48;15.83;;;10.27;;
31061;SDS011;17724;53.546;9.974;2022-09-28T11:17:50;17.47;;;8.70;;
31061;SDS011;17724;53.546;9.974;2022-09-28T11:21:51;17.23;;;7.87;;
31061;SDS011;17724;53.546;9.974;2022-09-28T11:25:56;12.73;;;5.70;;
31061;SDS011;17724;53.546;9.974;2022-09-28T11:34:31;12.87;;;6.30;;
31061;SDS011;17724;53.546;9.974;2022-09-28T11:42:43;11.87;;;5.27;;
31061;SDS011;17724;53.546;9.974;2022-09-28T11:51:26;12.60;;;5.10;;
31061;SDS011;17724;53.546;9.974;2022-09-28T12:00:26;14.57;;;5.93;;
31061;SDS011;17724;53.546;9.974;2022-09-28T12:04:31;12.63;;;5.30;;
31061;SDS011;17724;53.546;9.974;2022-09-28T12:08:35;12.00;;;4.10;;
31061;SDS011;17724;53.546;9.974;2022-09-28T12:17:33;12.17;;;4.67;;
31061;SDS011;17724;53.546;9.974;2022-09-28T12:21:26;12.70;;;4.33;;
31061;SDS011;17724;53.546;9.974;2022-09-28T12:25:54;13.77;;;4.90;;
31061;SDS011;17724;53.546;9.974;2022-09-28T12:30:01;12.23;;;4.20;;
31061;SDS011;17724;53.546;9.974;2022-09-28T12:34:05;12.53;;;4.30;;
31061;SDS011;17724;53.546;9.974;2022-09-28T12:42:58;13.17;;;3.90;;
31061;SDS011;17724;53.546;9.974;2022-09-28T13:08:12;11.00;;;3.70;;
31061;SDS011;17724;53.546;9.974;2022-09-28T13:12:23;11.97;;;4.70;;
31061;SDS011;17724;53.546;9.974;2022-09-28T13:16:41;11.37;;;3.80;;
31061;SDS011;17724;53.546;9.974;2022-09-28T13:25:22;10.70;;;3.27;;
31061;SDS011;17724;53.546;9.974;2022-09-28T13:29:25;11.20;;;3.63;;
31061;SDS011;17724;53.546;9.974;2022-09-28T13:33:30;11.20;;;2.90;;
31061;SDS011;17724;53.546;9.974;2022-09-28T13:37:34;12.40;;;2.40;;
31061;SDS011;17724;53.546;9.974;2022-09-28T13:41:36;10.93;;;2.30;;
31061;SDS011;17724;53.546;9.974;2022-09-28T13:45:45;10.57;;;2.60;;
31061;SDS011;17724;53.546;9.974;2022-09-28T13:54:37;11.20;;;2.83;;
31061;SDS011;17724;53.546;9.974;2022-09-28T13:58:41;11.47;;;2.70;;
31061;SDS011;17724;53.546;9.974;2022-09-28T14:02:48;10.90;;;2.53;;
31061;SDS011;17724;53.546;9.974;2022-09-28T14:06:55;12.73;;;4.77;;
31061;SDS011;17724;53.546;9.974;2022-09-28T14:19:30;21.60;;;13.83;;
31061;SDS011;17724;53.546;9.974;2022-09-28T14:27:57;13.23;;;4.17;;
31061;SDS011;17724;53.546;9.974;2022-09-28T14:32:20;11.60;;;3.50;;
31061;SDS011;17724;53.546;9.974;2022-09-28T14:36:23;20.47;;;13.13;;
31061;SDS011;17724;53.546;9.974;2022-09-28T14:40:58;18.20;;;11.37;;
31061;SDS011;17724;53.546;9.974;2022-09-28T14:53:19;11.87;;;2.23;;
31061;SDS011;17724;53.546;9.974;2022-09-28T14:57:23;10.97;;;2.40;;
31061;SDS011;17724;53.546;9.974;2022-09-28T15:01:26;11.30;;;2.60;;
31061;SDS011;17724;53.546;9.974;2022-09-28T15:05:31;11.40;;;3.53;;
31061;SDS011;17724;53.546;9.974;2022-09-28T15:09:40;11.70;;;2.63;;
31061;SDS011;17724;53.546;9.974;2022-09-28T15:13:41;12.50;;;3.83;;
31061;SDS011;17724;53.546;9.974;2022-09-28T15:17:44;12.37;;;3.30;;
31061;SDS011;17724;53.546;9.974;2022-09-28T15:21:54;11.30;;;3.27;;
31061;SDS011;17724;53.546;9.974;2022-09-28T15:25:55;11.40;;;2.77;;
31061;SDS011;17724;53.546;9.974;2022-09-28T15:29:56;12.77;;;4.90;;
31061;SDS011;17724;53.546;9.974;2022-09-28T15:34:01;12.00;;;3.73;;
31061;SDS011;17724;53.546;9.974;2022-09-28T15:38:20;10.70;;;2.87;;
31061;SDS011;17724;53.546;9.974;2022-09-28T15:42:21;11.40;;;3.30;;
31061;SDS011;17724;53.546;9.974;2022-09-28T15:46:21;11.50;;;3.27;;
31061;SDS011;17724;53.546;9.974;2022-09-28T15:50:23;11.57;;;3.60;;
31061;SDS011;17724;53.546;9.974;2022-09-28T15:54:28;13.03;;;3.73;;
31061;SDS011;17724;53.546;9.974;2022-09-28T15:58:35;12.80;;;3.70;;
31061;SDS011;17724;53.546;9.974;2022-09-28T16:02:36;12.00;;;3.73;;
31061;SDS011;17724;53.546;9.974;2022-09-28T16:06:39;17.63;;;4.37;;
31061;SDS011;17724;53.546;9.974;2022-09-28T16:10:40;20.07;;;8.50;;
31061;SDS011;17724;53.546;9.974;2022-09-28T16:14:53;32.07;;;22.03;;
31061;SDS011;17724;53.546;9.974;2022-09-28T16:18:56;15.80;;;8.40;;
31061;SDS011;17724;53.546;9.974;2022-09-28T16:23:07;22.57;;;14.17;;
31061;SDS011;17724;53.546;9.974;2022-09-28T16:27:26;14.33;;;5.50;;
31061;SDS011;17724;53.546;9.974;2022-09-28T16:31:29;17.90;;;7.80;;
31061;SDS011;17724;53.546;9.974;2022-09-28T16:39:39;14.70;;;6.63;;
31061;SDS011;17724;53.546;9.974;2022-09-28T16:43:39;24.17;;;14.90;;
31061;SDS011;17724;53.546;9.974;2022-09-28T16:47:39;35.70;;;25.80;;
31061;SDS011;17724;53.546;9.974;2022-09-28T16:51:40;23.10;;;12.90;;
31061;SDS011;17724;53.546;9.974;2022-09-28T16:55:40;25.10;;;14.60;;
31061;SDS011;17724;53.546;9.974;2022-09-28T16:59:41;27.63;;;15.90;;
31061;SDS011;17724;53.546;9.974;2022-09-28T17:03:41;25.63;;;16.93;;
31061;SDS011;17724;53.546;9.974;2022-09-28T17:07:46;16.87;;;9.20;;
31061;SDS011;17724;53.546;9.974;2022-09-28T17:11:48;22.70;;;14.00;;
31061;SDS011;17724;53.546;9.974;2022-09-28T17:15:56;37.63;;;24.77;;
31061;SDS011;17724;53.546;9.974;2022-09-28T17:19:57;31.10;;;23.10;;
31061;SDS011;17724;53.546;9.974;2022-09-28T17:23:57;24.80;;;16.43;;
31061;SDS011;17724;53.546;9.974;2022-09-28T17:27:57;45.70;;;39.40;;
31061;SDS011;17724;53.546;9.974;2022-09-28T17:31:58;37.37;;;31.87;;
31061;SDS011;17724;53.546;9.974;2022-09-28T17:35:59;22.93;;;15.63;;
31061;SDS011;17724;53.546;9.974;2022-09-28T17:40:01;22.73;;;15.20;;
31061;SDS011;17724;53.546;9.974;2022-09-28T17:44:11;19.97;;;12.90;;
31061;SDS011;17724;53.546;9.974;2022-09-28T17:48:15;21.93;;;14.67;;
31061;SDS011;17724;53.546;9.974;2022-09-28T17:52:17;24.50;;;16.90;;
31061;SDS011;17724;53.546;9.974;2022-09-28T17:56:18;23.03;;;14.20;;
31061;SDS011;17724;53.546;9.974;2022-09-28T18:00:18;22.63;;;13.53;;
31061;SDS011;17724;53.546;9.974;2022-09-28T18:04:19;24.30;;;13.90;;
31061;SDS011;17724;53.546;9.974;2022-09-28T18:08:19;22.57;;;15.50;;
31061;SDS011;17724;53.546;9.974;2022-09-28T18:12:20;22.77;;;14.60;;
31061;SDS011;17724;53.546;9.974;2022-09-28T18:16:20;20.17;;;13.80;;
31061;SDS011;17724;53.546;9.974;2022-09-28T18:20:22;19.00;;;12.93;;
31061;SDS011;17724;53.546;9.974;2022-09-28T18:24:22;18.57;;;11.93;;
31061;SDS011;17724;53.546;9.974;2022-09-28T18:28:22;28.80;;;21.67;;
31061;SDS011;17724;53.546;9.974;2022-09-28T18:32:23;52.17;;;39.03;;
31061;SDS011;17724;53.546;9.974;2022-09-28T18:36:30;43.47;;;38.77;;
31061;SDS011;17724;53.546;9.974;2022-09-28T18:40:32;21.67;;;15.50;;
31061;SDS011;17724;53.546;9.974;2022-09-28T18:44:33;63.13;;;55.47;;
31061;SDS011;17724;53.546;9.974;2022-09-28T18:48:34;54.47;;;48.50;;
31061;SDS011;17724;53.546;9.974;2022-09-28T18:52:35;40.30;;;33.03;;
31061;SDS011;17724;53.546;9.974;2022-09-28T18:56:36;37.53;;;25.37;;
31061;SDS011;17724;53.546;9.974;2022-09-28T19:00:37;22.77;;;16.40;;
31061;SDS011;17724;53.546;9.974;2022-09-28T19:04:39;18.37;;;12.30;;
31061;SDS011;17724;53.546;9.974;2022-09-28T19:08:40;26.37;;;16.40;;
31061;SDS011;17724;53.546;9.974;2022-09-28T19:12:41;22.33;;;15.77;;
31061;SDS011;17724;53.546;9.974;2022-09-28T19:16:42;20.97;;;13.50;;
31061;SDS011;17724;53.546;9.974;2022-09-28T19:20:43;23.43;;;15.10;;
31061;SDS011;17724;53.546;9.974;2022-09-28T19:24:43;24.57;;;15.53;;
31061;SDS011;17724;53.546;9.974;2022-09-28T19:28:44;21.77;;;14.80;;
31061;SDS011;17724;53.546;9.974;2022-09-28T19:32:44;19.50;;;12.80;;
31061;SDS011;17724;53.546;9.974;2022-09-28T19:36:45;18.47;;;12.80;;
31061;SDS011;17724;53.546;9.974;2022-09-28T19:40:45;18.10;;;12.80;;
31061;SDS011;17724;53.546;9.974;2022-09-28T19:44:45;17.67;;;11.30;;
31061;SDS011;17724;53.546;9.974;2022-09-28T19:48:46;18.53;;;12.20;;
31061;SDS011;17724;53.546;9.974;2022-09-28T19:52:47;17.43;;;11.37;;
31061;SDS011;17724;53.546;9.974;2022-09-28T19:56:48;19.03;;;10.67;;
31061;SDS011;17724;53.546;9.974;2022-09-28T20:00:49;17.63;;;11.27;;
31061;SDS011;17724;53.546;9.974;2022-09-28T20:04:50;33.87;;;25.30;;
31061;SDS011;17724;53.546;9.974;2022-09-28T20:08:51;64.57;;;50.77;;
31061;SDS011;17724;53.546;9.974;2022-09-28T20:12:51;26.17;;;18.67;;
31061;SDS011;17724;53.546;9.974;2022-09-28T20:16:52;21.20;;;15.97;;
31061;SDS011;17724;53.546;9.974;2022-09-28T20:20:59;18.97;;;12.40;;
31061;SDS011;17724;53.546;9.974;2022-09-28T20:25:09;17.07;;;10.03;;
31061;SDS011;17724;53.546;9.974;2022-09-28T20:29:10;17.57;;;9.60;;
31061;SDS011;17724;53.546;9.974;2022-09-28T20:33:10;16.30;;;9.57;;
31061;SDS011;17724;53.546;9.974;2022-09-28T20:37:11;18.83;;;10.30;;
31061;SDS011;17724;53.546;9.974;2022-09-28T20:41:13;16.00;;;9.13;;
31061;SDS011;17724;53.546;9.974;2022-09-28T20:45:16;16.27;;;10.10;;
31061;SDS011;17724;53.546;9.974;2022-09-28T20:49:16;17.07;;;10.10;;
31061;SDS011;17724;53.546;9.974;2022-09-28T20:53:17;18.40;;;9.47;;
31061;SDS011;17724;53.546;9.974;2022-09-28T20:57:17;16.90;;;9.00;;
31061;SDS011;17724;53.546;9.974;2022-09-28T21:01:27;17.63;;;10.67;;
31061;SDS011;17724;53.546;9.974;2022-09-28T21:05:29;17.40;;;10.87;;
31061;SDS011;17724;53.546;9.974;2022-09-28T21:09:29;16.50;;;9.93;;
31061;SDS011;17724;53.546;9.974;2022-09-28T21:13:31;15.83;;;9.00;;
31061;SDS011;17724;53.546;9.974;2022-09-28T21:17:31;16.10;;;9.90;;
31061;SDS011;17724;53.546;9.974;2022-09-28T21:21:31;20.83;;;15.40;;
31061;SDS011;17724;53.546;9.974;2022-09-28T21:25:32;16.93;;;10.07;;
31061;SDS011;17724;53.546;9.974;2022-09-28T21:29:32;16.27;;;9.93;;
31061;SDS011;17724;53.546;9.974;2022-09-28T21:33:33;19.70;;;11.03;;
31061;SDS011;17724;53.546;9.974;2022-09-28T21:37:33;15.83;;;8.97;;
31061;SDS011;17724;53.546;9.974;2022-09-28T21:41:33;15.17;;;8.93;;
31061;SDS011;17724;53.546;9.974;2022-09-28T21:45:34;16.13;;;9.97;;
31061;SDS011;17724;53.546;9.974;2022-09-28T21:49:34;15.67;;;8.80;;
31061;SDS011;17724;53.546;9.974;2022-09-28T21:53:35;17.73;;;8.97;;
31061;SDS011;17724;53.546;9.974;2022-09-28T21:57:36;16.13;;;8.80;;
31061;SDS011;17724;53.546;9.974;2022-09-28T22:01:37;15.50;;;8.40;;
31061;SDS011;17724;53.546;9.974;2022-09-28T22:05:37;16.07;;;8.50;;
31061;SDS011;17724;53.546;9.974;2022-09-28T22:09:37;16.27;;;9.40;;
31061;SDS011;17724;53.546;9.974;2022-09-28T22:13:42;15.47;;;8.77;;
31061;SDS011;17724;53.546;9.974;2022-09-28T22:17:53;15.73;;;8.50;;
31061;SDS011;17724;53.546;9.974;2022-09-28T22:21:54;14.40;;;7.97;;
31061;SDS011;17724;53.546;9.974;2022-09-28T22:26:02;14.30;;;7.10;;
31061;SDS011;17724;53.546;9.974;2022-09-28T22:30:05;15.30;;;8.10;;
31061;SDS011;17724;53.546;9.974;2022-09-28T22:34:06;15.47;;;7.33;;
31061;SDS011;17724;53.546;9.974;2022-09-28T22:38:06;14.97;;;6.70;;
31061;SDS011;17724;53.546;9.974;2022-09-28T22:42:07;15.60;;;7.00;;
31061;SDS011;17724;53.546;9.974;2022-09-28T22:50:09;15.10;;;7.53;;
31061;SDS011;17724;53.546;9.974;2022-09-28T22:54:10;16.83;;;8.30;;
31061;SDS011;17724;53.546;9.974;2022-09-28T22:58:14;15.00;;;8.33;;
31061;SDS011;17724;53.546;9.974;2022-09-28T23:02:14;14.50;;;7.60;;
31061;SDS011;17724;53.546;9.974;2022-09-28T23:06:15;15.80;;;8.03;;
31061;SDS011;17724;53.546;9.974;2022-09-28T23:10:17;14.67;;;7.97;;
31061;SDS011;17724;53.546;9.974;2022-09-28T23:14:17;16.47;;;9.50;;
31061;SDS011;17724;53.546;9.974;2022-09-28T23:18:18;17.10;;;8.50;;
31061;SDS011;17724;53.546;9.974;2022-09-28T23:22:18;15.40;;;8.37;;
31061;SDS011;17724;53.546;9.974;2022-09-28T23:26:20;14.93;;;8.40;;
31061;SDS011;17724;53.546;9.974;2022-09-28T23:30:23;15.60;;;8.37;;
31061;SDS011;17724;53.546;9.974;2022-09-28T23:34:23;16.17;;;9.20;;
31061;SDS011;17724;53.546;9.974;2022-09-28T23:38:23;15.47;;;8.27;;
31061;SDS011;17724;53.546;9.974;2022-09-28T23:42:25;16.63;;;8.80;;
31061;SDS011;17724;53.546;9.974;2022-09-28T23:46:25;15.83;;;9.03;;
31061;SDS011;17724;53.546;9.974;2022-09-28T23:50:26;15.50;;;8.30;;
31061;SDS011;17724;53.546;9.974;2022-09-28T23:54:29;16.30;;;9.00;;
31061;SDS011;17724;53.546;9.974;2022-09-28T23:58:29;16.37;;;7.97;;
